• Join FlightAware (Why Join?)
  • Login
  • US Flag 
08:36AM EDT


 

Airport Tracker/Info


-or-


 

Live Flight TrackerFlight Track Log ✈ ASQ5407 ✈ 03-May-2013 ✈ KATL - KAGS

Flight Track Log - Related Links

Times and Time Zones

All times are in EDT time to prevent confusion due to time zone crossing. See the ASQ5407 flight status page for this flight to view local times or setup timezone preferences in your user account.

Time Position Orientation Groundspeed Altitude Reporting Facility
EDT Latitude Longitude Course Direction KTS MPH feet Rate Location/Type
11:12PM 33.6333 -84.3667 90° East 180 207 2,700  Level Atlanta TRACON
11:13PM 33.6333 -84.2833 90° East 231 266 5,900 2,580 Climbing Atlanta TRACON
11:14PM 33.6333 -84.2333 90° East 245 282 7,700 1,980 Climbing Atlanta TRACON
11:15PM 33.6147 -84.0986 99° East 275 316 10,300 1,380 Climbing Atlanta Center
11:16PM 33.6000 -83.9914 99° East 311 358 11,200 1,080 Climbing Atlanta Center
11:17PM 33.5833 -83.8867 101° East 336 387 12,500 1,620 Climbing Atlanta Center
11:18PM 33.5664 -83.7694 100° East 354 407 14,500 1,740 Climbing Atlanta Center
11:19PM 33.5536 -83.6500 97° East 354 407 16,000 1,200 Climbing Atlanta Center
11:20PM 33.5406 -83.5278 97° East 367 422 16,900 420 Climbing Atlanta Center
11:21PM 33.5275 -83.3933 97° East 393 452 16,900  Level Atlanta Center
11:22PM 33.5142 -83.2489 96° East 423 487 16,900  Level Atlanta Center
11:23PM 33.4964 -83.1072 99° East 428 493 17,000  Climbing Atlanta Center
11:24PM 33.4825 -82.9528 96° East 423 487 17,000  Level Atlanta Center
11:25PM 33.4667 -82.8136 98° East 423 487 17,000  Level Atlanta Center
11:26PM 33.3967 -82.7028 127° Southeast 414 476 17,000 -540 Level Atlanta Center
11:27PM 33.3186 -82.6194 138° Southeast 414 476 16,000 -1,500 Descending Atlanta Center
11:28PM 33.2422 -82.5361 138° Southeast 400 460 14,100 -1,980 Descending Atlanta Center
11:29PM 33.1744 -82.4581 136° Southeast 368 423 12,100 -2,040 Descending Atlanta Center
11:31PM 33.1681 -82.2794 92° East 270 311 8,100 -1,920 Descending Atlanta Center
11:32PM 33.1792 -82.1947 81° East 259 298 6,400 -1,740 Descending Atlanta Center
11:33PM 33.1906 -82.1200 80° East 247 284 4,700 -1,200 Descending Atlanta Center
11:34PM 33.2086 -82.0675 68° East 221 254 4,000 -840 Descending Atlanta Center
11:35PM 33.2756 -82.0708 358° North 170 196 3,100 -1,140 Descending Atlanta Center
11:36PM 33.2892 -82.0208 72° East 141 162 1,800 -960 Descending Atlanta Center
11:37PM 33.3031 -81.9758 70° East 141 162 1,200 -600 Descending Atlanta Center